sensor_id;sensor_type;location;lat;lon;timestamp;P1;durP1;ratioP1;P2;durP2;ratioP2
75687;SDS011;64300;45.034;38.910;2022-12-24T00:00:07;36.42;;;16.40;;
75687;SDS011;64300;45.034;38.910;2022-12-24T00:02:33;39.28;;;18.45;;
75687;SDS011;64300;45.034;38.910;2022-12-24T00:04:59;43.75;;;18.13;;
75687;SDS011;64300;45.034;38.910;2022-12-24T00:07:25;44.10;;;18.38;;
75687;SDS011;64300;45.034;38.910;2022-12-24T00:09:53;42.10;;;17.17;;
75687;SDS011;64300;45.034;38.910;2022-12-24T00:12:19;36.85;;;16.65;;
75687;SDS011;64300;45.034;38.910;2022-12-24T00:14:45;39.20;;;17.42;;
75687;SDS011;64300;45.034;38.910;2022-12-24T00:17:11;41.03;;;17.55;;
75687;SDS011;64300;45.034;38.910;2022-12-24T00:19:36;42.35;;;18.15;;
75687;SDS011;64300;45.034;38.910;2022-12-24T00:22:02;43.60;;;17.90;;
75687;SDS011;64300;45.034;38.910;2022-12-24T00:24:28;36.53;;;17.08;;
75687;SDS011;64300;45.034;38.910;2022-12-24T00:26:56;39.63;;;17.00;;
75687;SDS011;64300;45.034;38.910;2022-12-24T00:29:22;38.45;;;16.52;;
75687;SDS011;64300;45.034;38.910;2022-12-24T00:31:48;38.42;;;17.33;;
75687;SDS011;64300;45.034;38.910;2022-12-24T00:34:14;40.95;;;16.45;;
75687;SDS011;64300;45.034;38.910;2022-12-24T00:36:39;36.03;;;17.50;;
75687;SDS011;64300;45.034;38.910;2022-12-24T00:39:05;33.03;;;17.10;;
75687;SDS011;64300;45.034;38.910;2022-12-24T00:41:31;35.47;;;16.52;;
75687;SDS011;64300;45.034;38.910;2022-12-24T00:44:03;38.13;;;17.73;;
75687;SDS011;64300;45.034;38.910;2022-12-24T00:46:31;38.10;;;16.58;;
75687;SDS011;64300;45.034;38.910;2022-12-24T00:48:59;38.30;;;17.70;;
75687;SDS011;64300;45.034;38.910;2022-12-24T00:51:25;39.15;;;17.35;;
75687;SDS011;64300;45.034;38.910;2022-12-24T00:53:51;32.72;;;15.82;;
75687;SDS011;64300;45.034;38.910;2022-12-24T00:56:18;38.25;;;16.15;;
75687;SDS011;64300;45.034;38.910;2022-12-24T00:58:45;38.22;;;16.30;;
75687;SDS011;64300;45.034;38.910;2022-12-24T01:03:37;34.92;;;15.80;;
75687;SDS011;64300;45.034;38.910;2022-12-24T01:06:04;38.35;;;16.13;;
75687;SDS011;64300;45.034;38.910;2022-12-24T01:08:32;40.70;;;18.27;;
75687;SDS011;64300;45.034;38.910;2022-12-24T01:10:59;49.83;;;18.50;;
75687;SDS011;64300;45.034;38.910;2022-12-24T01:13:26;41.97;;;18.67;;
75687;SDS011;64300;45.034;38.910;2022-12-24T01:15:52;46.97;;;18.73;;
75687;SDS011;64300;45.034;38.910;2022-12-24T01:18:18;38.88;;;18.33;;
75687;SDS011;64300;45.034;38.910;2022-12-24T01:20:56;35.70;;;17.77;;
75687;SDS011;64300;45.034;38.910;2022-12-24T01:23:24;45.25;;;19.95;;
75687;SDS011;64300;45.034;38.910;2022-12-24T01:25:50;34.13;;;16.60;;
75687;SDS011;64300;45.034;38.910;2022-12-24T01:28:16;40.40;;;18.23;;
75687;SDS011;64300;45.034;38.910;2022-12-24T01:30:42;38.08;;;18.58;;
75687;SDS011;64300;45.034;38.910;2022-12-24T01:33:08;39.95;;;19.52;;
75687;SDS011;64300;45.034;38.910;2022-12-24T01:35:34;40.75;;;17.92;;
75687;SDS011;64300;45.034;38.910;2022-12-24T01:38:03;43.10;;;17.90;;
75687;SDS011;64300;45.034;38.910;2022-12-24T01:40:29;50.05;;;20.70;;
75687;SDS011;64300;45.034;38.910;2022-12-24T01:43:17;45.25;;;19.45;;
75687;SDS011;64300;45.034;38.910;2022-12-24T01:45:53;45.92;;;17.92;;
75687;SDS011;64300;45.034;38.910;2022-12-24T01:48:24;44.35;;;17.98;;
75687;SDS011;64300;45.034;38.910;2022-12-24T01:50:57;41.65;;;17.70;;
75687;SDS011;64300;45.034;38.910;2022-12-24T01:53:28;43.03;;;19.08;;
75687;SDS011;64300;45.034;38.910;2022-12-24T01:55:56;41.83;;;18.48;;
75687;SDS011;64300;45.034;38.910;2022-12-24T02:00:49;38.67;;;17.20;;
75687;SDS011;64300;45.034;38.910;2022-12-24T02:03:15;37.58;;;17.50;;
75687;SDS011;64300;45.034;38.910;2022-12-24T02:08:11;38.47;;;16.45;;
75687;SDS011;64300;45.034;38.910;2022-12-24T02:10:38;40.88;;;17.17;;
75687;SDS011;64300;45.034;38.910;2022-12-24T02:13:04;34.00;;;17.33;;
75687;SDS011;64300;45.034;38.910;2022-12-24T02:15:34;42.38;;;18.05;;
75687;SDS011;64300;45.034;38.910;2022-12-24T02:18:25;36.00;;;17.25;;
75687;SDS011;64300;45.034;38.910;2022-12-24T02:21:06;38.35;;;15.07;;
75687;SDS011;64300;45.034;38.910;2022-12-24T02:23:50;36.17;;;16.70;;
75687;SDS011;64300;45.034;38.910;2022-12-24T02:32:20;36.17;;;16.25;;
75687;SDS011;64300;45.034;38.910;2022-12-24T02:34:46;41.20;;;16.10;;
75687;SDS011;64300;45.034;38.910;2022-12-24T02:37:28;35.90;;;17.08;;
75687;SDS011;64300;45.034;38.910;2022-12-24T02:40:03;37.67;;;15.45;;
75687;SDS011;64300;45.034;38.910;2022-12-24T02:42:36;40.17;;;15.80;;
75687;SDS011;64300;45.034;38.910;2022-12-24T02:45:31;35.50;;;17.33;;
75687;SDS011;64300;45.034;38.910;2022-12-24T02:47:59;33.67;;;15.27;;
75687;SDS011;64300;45.034;38.910;2022-12-24T02:52:52;29.88;;;14.60;;
75687;SDS011;64300;45.034;38.910;2022-12-24T02:55:22;32.53;;;15.20;;
75687;SDS011;64300;45.034;38.910;2022-12-24T03:06:19;32.75;;;15.90;;
75687;SDS011;64300;45.034;38.910;2022-12-24T03:09:01;34.33;;;14.82;;
75687;SDS011;64300;45.034;38.910;2022-12-24T03:11:30;30.60;;;13.38;;
75687;SDS011;64300;45.034;38.910;2022-12-24T03:13:57;33.13;;;14.70;;
75687;SDS011;64300;45.034;38.910;2022-12-24T03:16:24;31.98;;;13.85;;
75687;SDS011;64300;45.034;38.910;2022-12-24T03:18:52;32.67;;;14.50;;
75687;SDS011;64300;45.034;38.910;2022-12-24T03:21:30;38.45;;;15.00;;
75687;SDS011;64300;45.034;38.910;2022-12-24T03:24:00;31.70;;;15.63;;
75687;SDS011;64300;45.034;38.910;2022-12-24T03:26:27;25.50;;;13.80;;
75687;SDS011;64300;45.034;38.910;2022-12-24T03:28:55;34.72;;;15.05;;
75687;SDS011;64300;45.034;38.910;2022-12-24T03:31:20;32.13;;;15.25;;
75687;SDS011;64300;45.034;38.910;2022-12-24T03:33:47;39.83;;;15.95;;
75687;SDS011;64300;45.034;38.910;2022-12-24T03:36:13;32.88;;;16.00;;
75687;SDS011;64300;45.034;38.910;2022-12-24T03:41:06;36.97;;;15.35;;
75687;SDS011;64300;45.034;38.910;2022-12-24T03:43:32;37.92;;;15.80;;
75687;SDS011;64300;45.034;38.910;2022-12-24T03:46:02;35.63;;;15.52;;
75687;SDS011;64300;45.034;38.910;2022-12-24T03:48:30;35.55;;;16.80;;
75687;SDS011;64300;45.034;38.910;2022-12-24T03:50:58;35.55;;;16.45;;
75687;SDS011;64300;45.034;38.910;2022-12-24T03:53:24;32.85;;;15.50;;
75687;SDS011;64300;45.034;38.910;2022-12-24T03:55:50;36.90;;;14.88;;
75687;SDS011;64300;45.034;38.910;2022-12-24T03:58:16;34.67;;;15.43;;
75687;SDS011;64300;45.034;38.910;2022-12-24T04:00:42;35.60;;;16.95;;
75687;SDS011;64300;45.034;38.910;2022-12-24T04:03:07;34.72;;;15.63;;
75687;SDS011;64300;45.034;38.910;2022-12-24T04:05:33;34.70;;;16.95;;
75687;SDS011;64300;45.034;38.910;2022-12-24T04:07:59;31.90;;;15.60;;
75687;SDS011;64300;45.034;38.910;2022-12-24T04:10:25;34.75;;;16.95;;
75687;SDS011;64300;45.034;38.910;2022-12-24T04:12:51;31.63;;;13.60;;
75687;SDS011;64300;45.034;38.910;2022-12-24T04:15:17;42.35;;;14.60;;
75687;SDS011;64300;45.034;38.910;2022-12-24T04:20:09;31.33;;;14.30;;
75687;SDS011;64300;45.034;38.910;2022-12-24T04:22:35;28.30;;;12.73;;
75687;SDS011;64300;45.034;38.910;2022-12-24T04:25:01;31.85;;;13.15;;
75687;SDS011;64300;45.034;38.910;2022-12-24T04:27:27;27.98;;;13.05;;
75687;SDS011;64300;45.034;38.910;2022-12-24T04:29:55;28.55;;;14.32;;
75687;SDS011;64300;45.034;38.910;2022-12-24T04:32:21;29.30;;;13.32;;
75687;SDS011;64300;45.034;38.910;2022-12-24T04:34:47;36.00;;;15.20;;
75687;SDS011;64300;45.034;38.910;2022-12-24T04:37:13;36.08;;;14.38;;
75687;SDS011;64300;45.034;38.910;2022-12-24T04:39:39;27.73;;;12.80;;
75687;SDS011;64300;45.034;38.910;2022-12-24T04:42:04;30.10;;;14.55;;
75687;SDS011;64300;45.034;38.910;2022-12-24T04:44:30;35.20;;;14.20;;
75687;SDS011;64300;45.034;38.910;2022-12-24T04:46:56;29.40;;;13.57;;
75687;SDS011;64300;45.034;38.910;2022-12-24T04:49:22;31.13;;;12.38;;
75687;SDS011;64300;45.034;38.910;2022-12-24T04:51:48;35.80;;;13.70;;
75687;SDS011;64300;45.034;38.910;2022-12-24T04:54:17;33.03;;;15.05;;
75687;SDS011;64300;45.034;38.910;2022-12-24T04:56:43;78.65;;;14.50;;
75687;SDS011;64300;45.034;38.910;2022-12-24T04:59:09;35.53;;;15.00;;
75687;SDS011;64300;45.034;38.910;2022-12-24T05:01:34;39.63;;;16.58;;
75687;SDS011;64300;45.034;38.910;2022-12-24T05:04:00;37.92;;;13.38;;
75687;SDS011;64300;45.034;38.910;2022-12-24T05:06:28;41.15;;;15.32;;
75687;SDS011;64300;45.034;38.910;2022-12-24T05:08:56;32.63;;;12.60;;
75687;SDS011;64300;45.034;38.910;2022-12-24T05:11:22;88.00;;;14.93;;
75687;SDS011;64300;45.034;38.910;2022-12-24T05:13:48;52.10;;;17.75;;
75687;SDS011;64300;45.034;38.910;2022-12-24T05:16:16;35.13;;;15.07;;
75687;SDS011;64300;45.034;38.910;2022-12-24T05:18:43;33.00;;;14.63;;
75687;SDS011;64300;45.034;38.910;2022-12-24T05:21:12;36.55;;;16.25;;
75687;SDS011;64300;45.034;38.910;2022-12-24T05:23:40;40.13;;;15.77;;
75687;SDS011;64300;45.034;38.910;2022-12-24T05:29:11;37.33;;;14.20;;
75687;SDS011;64300;45.034;38.910;2022-12-24T05:31:37;33.88;;;15.80;;
75687;SDS011;64300;45.034;38.910;2022-12-24T05:34:04;32.72;;;15.43;;
75687;SDS011;64300;45.034;38.910;2022-12-24T05:36:31;35.22;;;18.38;;
75687;SDS011;64300;45.034;38.910;2022-12-24T05:38:57;42.50;;;19.85;;
75687;SDS011;64300;45.034;38.910;2022-12-24T05:43:52;41.78;;;20.77;;
75687;SDS011;64300;45.034;38.910;2022-12-24T05:46:18;35.80;;;16.52;;
75687;SDS011;64300;45.034;38.910;2022-12-24T05:48:46;38.20;;;16.08;;
75687;SDS011;64300;45.034;38.910;2022-12-24T05:51:13;33.22;;;14.02;;
75687;SDS011;64300;45.034;38.910;2022-12-24T05:53:42;28.80;;;11.90;;
75687;SDS011;64300;45.034;38.910;2022-12-24T05:56:09;30.00;;;13.85;;
75687;SDS011;64300;45.034;38.910;2022-12-24T05:58:37;38.13;;;16.23;;
75687;SDS011;64300;45.034;38.910;2022-12-24T06:01:06;37.10;;;16.05;;
75687;SDS011;64300;45.034;38.910;2022-12-24T06:03:32;34.15;;;14.73;;
75687;SDS011;64300;45.034;38.910;2022-12-24T06:06:06;39.65;;;16.58;;
75687;SDS011;64300;45.034;38.910;2022-12-24T06:08:34;36.00;;;15.93;;
75687;SDS011;64300;45.034;38.910;2022-12-24T06:11:04;32.45;;;15.57;;
75687;SDS011;64300;45.034;38.910;2022-12-24T06:13:32;51.35;;;19.13;;
75687;SDS011;64300;45.034;38.910;2022-12-24T06:15:59;51.40;;;19.88;;
75687;SDS011;64300;45.034;38.910;2022-12-24T06:18:28;60.90;;;18.77;;
75687;SDS011;64300;45.034;38.910;2022-12-24T06:20:55;43.50;;;18.00;;
75687;SDS011;64300;45.034;38.910;2022-12-24T06:23:22;53.40;;;20.25;;
75687;SDS011;64300;45.034;38.910;2022-12-24T06:28:14;46.70;;;18.70;;
75687;SDS011;64300;45.034;38.910;2022-12-24T06:30:41;49.15;;;20.10;;
75687;SDS011;64300;45.034;38.910;2022-12-24T06:33:11;50.67;;;21.75;;
75687;SDS011;64300;45.034;38.910;2022-12-24T06:35:37;53.30;;;20.35;;
75687;SDS011;64300;45.034;38.910;2022-12-24T06:38:02;48.85;;;19.67;;
75687;SDS011;64300;45.034;38.910;2022-12-24T06:40:28;50.15;;;22.75;;
75687;SDS011;64300;45.034;38.910;2022-12-24T06:42:54;52.90;;;23.45;;
75687;SDS011;64300;45.034;38.910;2022-12-24T06:45:20;51.63;;;23.70;;
75687;SDS011;64300;45.034;38.910;2022-12-24T06:47:46;48.40;;;22.40;;
75687;SDS011;64300;45.034;38.910;2022-12-24T06:50:12;59.25;;;23.88;;
75687;SDS011;64300;45.034;38.910;2022-12-24T06:52:38;55.58;;;25.17;;
75687;SDS011;64300;45.034;38.910;2022-12-24T06:55:04;55.28;;;23.38;;
75687;SDS011;64300;45.034;38.910;2022-12-24T06:57:30;54.28;;;22.73;;
75687;SDS011;64300;45.034;38.910;2022-12-24T06:59:57;53.50;;;22.52;;
75687;SDS011;64300;45.034;38.910;2022-12-24T07:02:23;51.40;;;22.95;;
75687;SDS011;64300;45.034;38.910;2022-12-24T07:04:52;51.88;;;24.05;;
75687;SDS011;64300;45.034;38.910;2022-12-24T07:07:19;45.13;;;21.33;;
75687;SDS011;64300;45.034;38.910;2022-12-24T07:09:44;71.90;;;22.85;;
75687;SDS011;64300;45.034;38.910;2022-12-24T07:12:10;52.97;;;22.60;;
75687;SDS011;64300;45.034;38.910;2022-12-24T07:14:36;46.97;;;22.45;;
75687;SDS011;64300;45.034;38.910;2022-12-24T07:17:02;59.95;;;22.70;;
75687;SDS011;64300;45.034;38.910;2022-12-24T07:19:28;47.30;;;22.20;;
75687;SDS011;64300;45.034;38.910;2022-12-24T07:21:54;59.20;;;24.08;;
75687;SDS011;64300;45.034;38.910;2022-12-24T07:24:20;54.33;;;23.00;;
75687;SDS011;64300;45.034;38.910;2022-12-24T07:26:45;59.40;;;23.13;;
75687;SDS011;64300;45.034;38.910;2022-12-24T07:29:11;54.55;;;24.45;;
75687;SDS011;64300;45.034;38.910;2022-12-24T07:31:37;67.88;;;22.15;;
75687;SDS011;64300;45.034;38.910;2022-12-24T07:34:03;52.65;;;23.27;;
75687;SDS011;64300;45.034;38.910;2022-12-24T07:36:29;58.03;;;23.52;;
75687;SDS011;64300;45.034;38.910;2022-12-24T07:38:55;63.20;;;26.92;;
75687;SDS011;64300;45.034;38.910;2022-12-24T07:41:21;56.05;;;24.60;;
75687;SDS011;64300;45.034;38.910;2022-12-24T07:43:47;62.35;;;25.77;;
75687;SDS011;64300;45.034;38.910;2022-12-24T07:46:13;68.32;;;26.60;;
75687;SDS011;64300;45.034;38.910;2022-12-24T07:48:41;62.38;;;25.23;;
75687;SDS011;64300;45.034;38.910;2022-12-24T07:51:07;52.38;;;24.55;;
75687;SDS011;64300;45.034;38.910;2022-12-24T07:53:33;60.67;;;25.90;;
75687;SDS011;64300;45.034;38.910;2022-12-24T07:55:59;60.63;;;26.02;;
75687;SDS011;64300;45.034;38.910;2022-12-24T07:58:25;57.40;;;25.27;;
75687;SDS011;64300;45.034;38.910;2022-12-24T08:00:55;54.75;;;24.30;;
75687;SDS011;64300;45.034;38.910;2022-12-24T08:03:23;56.88;;;24.25;;
75687;SDS011;64300;45.034;38.910;2022-12-24T08:05:49;61.47;;;25.40;;
75687;SDS011;64300;45.034;38.910;2022-12-24T08:08:17;53.33;;;25.10;;
75687;SDS011;64300;45.034;38.910;2022-12-24T08:13:12;50.67;;;21.88;;
75687;SDS011;64300;45.034;38.910;2022-12-24T08:15:39;41.25;;;20.60;;
75687;SDS011;64300;45.034;38.910;2022-12-24T08:18:05;48.60;;;22.00;;
75687;SDS011;64300;45.034;38.910;2022-12-24T08:22:57;49.20;;;21.55;;
75687;SDS011;64300;45.034;38.910;2022-12-24T08:25:23;50.30;;;22.25;;
75687;SDS011;64300;45.034;38.910;2022-12-24T08:27:49;45.65;;;22.20;;
75687;SDS011;64300;45.034;38.910;2022-12-24T08:30:15;49.65;;;21.90;;
75687;SDS011;64300;45.034;38.910;2022-12-24T08:32:41;45.83;;;22.75;;
75687;SDS011;64300;45.034;38.910;2022-12-24T08:35:07;43.55;;;20.17;;
75687;SDS011;64300;45.034;38.910;2022-12-24T08:39:59;36.10;;;19.08;;
75687;SDS011;64300;45.034;38.910;2022-12-24T08:42:24;40.85;;;17.60;;
75687;SDS011;64300;45.034;38.910;2022-12-24T08:44:50;38.45;;;17.45;;
75687;SDS011;64300;45.034;38.910;2022-12-24T08:47:16;41.83;;;18.95;;
75687;SDS011;64300;45.034;38.910;2022-12-24T08:49:42;41.00;;;18.10;;
75687;SDS011;64300;45.034;38.910;2022-12-24T08:54:37;31.55;;;17.42;;
75687;SDS011;64300;45.034;38.910;2022-12-24T08:57:03;38.50;;;17.27;;
75687;SDS011;64300;45.034;38.910;2022-12-24T08:59:29;38.50;;;16.88;;
75687;SDS011;64300;45.034;38.910;2022-12-24T09:01:54;35.08;;;17.50;;
75687;SDS011;64300;45.034;38.910;2022-12-24T09:04:20;38.50;;;17.38;;
75687;SDS011;64300;45.034;38.910;2022-12-24T09:06:46;34.20;;;18.23;;
75687;SDS011;64300;45.034;38.910;2022-12-24T09:09:12;40.15;;;18.40;;
75687;SDS011;64300;45.034;38.910;2022-12-24T09:11:38;33.88;;;16.33;;
75687;SDS011;64300;45.034;38.910;2022-12-24T09:14:04;36.03;;;18.90;;
75687;SDS011;64300;45.034;38.910;2022-12-24T09:16:30;29.20;;;15.80;;
75687;SDS011;64300;45.034;38.910;2022-12-24T09:18:56;34.75;;;18.88;;
75687;SDS011;64300;45.034;38.910;2022-12-24T09:21:25;42.05;;;19.25;;
75687;SDS011;64300;45.034;38.910;2022-12-24T09:23:51;40.78;;;19.85;;
75687;SDS011;64300;45.034;38.910;2022-12-24T09:28:45;41.90;;;19.05;;
75687;SDS011;64300;45.034;38.910;2022-12-24T09:31:11;41.17;;;19.83;;
75687;SDS011;64300;45.034;38.910;2022-12-24T09:33:38;46.35;;;18.85;;
75687;SDS011;64300;45.034;38.910;2022-12-24T09:36:06;43.03;;;20.65;;
75687;SDS011;64300;45.034;38.910;2022-12-24T09:38:32;44.40;;;20.42;;
75687;SDS011;64300;45.034;38.910;2022-12-24T09:40:59;41.97;;;20.92;;
75687;SDS011;64300;45.034;38.910;2022-12-24T09:43:28;42.47;;;18.38;;
75687;SDS011;64300;45.034;38.910;2022-12-24T09:46:00;36.78;;;20.77;;
75687;SDS011;64300;45.034;38.910;2022-12-24T09:48:47;41.60;;;20.05;;
75687;SDS011;64300;45.034;38.910;2022-12-24T09:51:23;39.80;;;20.52;;
75687;SDS011;64300;45.034;38.910;2022-12-24T09:56:38;44.75;;;21.90;;
75687;SDS011;64300;45.034;38.910;2022-12-24T09:59:13;39.47;;;20.13;;
75687;SDS011;64300;45.034;38.910;2022-12-24T10:01:45;42.45;;;21.38;;
75687;SDS011;64300;45.034;38.910;2022-12-24T10:04:14;39.85;;;20.52;;
75687;SDS011;64300;45.034;38.910;2022-12-24T10:06:57;46.28;;;21.67;;
75687;SDS011;64300;45.034;38.910;2022-12-24T10:17:38;45.55;;;22.95;;
75687;SDS011;64300;45.034;38.910;2022-12-24T10:28:46;49.05;;;23.45;;
75687;SDS011;64300;45.034;38.910;2022-12-24T10:31:12;50.28;;;24.30;;
75687;SDS011;64300;45.034;38.910;2022-12-24T10:33:42;51.47;;;23.02;;
75687;SDS011;64300;45.034;38.910;2022-12-24T10:36:17;47.70;;;21.95;;
75687;SDS011;64300;45.034;38.910;2022-12-24T10:38:48;48.50;;;23.60;;
75687;SDS011;64300;45.034;38.910;2022-12-24T10:43:43;49.40;;;23.48;;
75687;SDS011;64300;45.034;38.910;2022-12-24T10:48:59;47.15;;;23.35;;
75687;SDS011;64300;45.034;38.910;2022-12-24T10:54:00;47.65;;;23.17;;
75687;SDS011;64300;45.034;38.910;2022-12-24T10:56:43;51.78;;;21.52;;
75687;SDS011;64300;45.034;38.910;2022-12-24T10:59:25;42.42;;;22.77;;
75687;SDS011;64300;45.034;38.910;2022-12-24T11:01:55;49.10;;;23.23;;
75687;SDS011;64300;45.034;38.910;2022-12-24T11:04:24;53.42;;;23.20;;
75687;SDS011;64300;45.034;38.910;2022-12-24T11:06:52;48.35;;;21.00;;
75687;SDS011;64300;45.034;38.910;2022-12-24T11:09:27;50.63;;;22.17;;
75687;SDS011;64300;45.034;38.910;2022-12-24T11:11:56;42.25;;;21.50;;
75687;SDS011;64300;45.034;38.910;2022-12-24T11:14:23;46.40;;;22.42;;
75687;SDS011;64300;45.034;38.910;2022-12-24T11:16:53;46.15;;;20.85;;
75687;SDS011;64300;45.034;38.910;2022-12-24T11:19:28;46.20;;;21.80;;
75687;SDS011;64300;45.034;38.910;2022-12-24T11:22:09;47.22;;;22.25;;
75687;SDS011;64300;45.034;38.910;2022-12-24T11:24:59;48.85;;;23.33;;
75687;SDS011;64300;45.034;38.910;2022-12-24T11:27:38;55.38;;;23.05;;
75687;SDS011;64300;45.034;38.910;2022-12-24T11:35:30;42.33;;;22.50;;
75687;SDS011;64300;45.034;38.910;2022-12-24T11:40:41;52.70;;;22.30;;
75687;SDS011;64300;45.034;38.910;2022-12-24T11:43:16;54.05;;;23.73;;
75687;SDS011;64300;45.034;38.910;2022-12-24T11:45:52;49.92;;;24.10;;
75687;SDS011;64300;45.034;38.910;2022-12-24T11:50:58;50.22;;;24.08;;
75687;SDS011;64300;45.034;38.910;2022-12-24T11:53:37;60.80;;;26.00;;
75687;SDS011;64300;45.034;38.910;2022-12-24T11:56:28;55.20;;;24.95;;
75687;SDS011;64300;45.034;38.910;2022-12-24T11:59:19;59.50;;;26.52;;
75687;SDS011;64300;45.034;38.910;2022-12-24T12:04:32;50.85;;;25.15;;
75687;SDS011;64300;45.034;38.910;2022-12-24T12:07:02;56.47;;;24.83;;
75687;SDS011;64300;45.034;38.910;2022-12-24T12:09:40;51.97;;;25.35;;
75687;SDS011;64300;45.034;38.910;2022-12-24T12:12:27;46.72;;;24.13;;
75687;SDS011;64300;45.034;38.910;2022-12-24T12:15:15;44.90;;;21.42;;
75687;SDS011;64300;45.034;38.910;2022-12-24T12:17:50;45.00;;;23.42;;
75687;SDS011;64300;45.034;38.910;2022-12-24T12:31:47;50.42;;;24.05;;
75687;SDS011;64300;45.034;38.910;2022-12-24T12:37:16;49.65;;;24.17;;
75687;SDS011;64300;45.034;38.910;2022-12-24T12:39:48;58.75;;;24.95;;
75687;SDS011;64300;45.034;38.910;2022-12-24T12:42:19;48.35;;;24.40;;
75687;SDS011;64300;45.034;38.910;2022-12-24T12:45:02;51.28;;;24.13;;
75687;SDS011;64300;45.034;38.910;2022-12-24T12:50:24;48.63;;;23.45;;
75687;SDS011;64300;45.034;38.910;2022-12-24T12:56:00;51.72;;;23.52;;
75687;SDS011;64300;45.034;38.910;2022-12-24T12:58:38;51.45;;;25.73;;
75687;SDS011;64300;45.034;38.910;2022-12-24T13:01:08;65.95;;;26.55;;
75687;SDS011;64300;45.034;38.910;2022-12-24T13:06:43;48.10;;;24.25;;
75687;SDS011;64300;45.034;38.910;2022-12-24T13:12:28;54.38;;;25.50;;
75687;SDS011;64300;45.034;38.910;2022-12-24T13:15:45;56.22;;;25.60;;
75687;SDS011;64300;45.034;38.910;2022-12-24T13:20:51;57.50;;;25.67;;
75687;SDS011;64300;45.034;38.910;2022-12-24T13:23:18;56.92;;;26.38;;
75687;SDS011;64300;45.034;38.910;2022-12-24T13:25:46;63.42;;;24.98;;
75687;SDS011;64300;45.034;38.910;2022-12-24T13:36:03;72.05;;;27.45;;
75687;SDS011;64300;45.034;38.910;2022-12-24T13:38:55;61.47;;;27.38;;
75687;SDS011;64300;45.034;38.910;2022-12-24T13:49:16;56.95;;;25.60;;
75687;SDS011;64300;45.034;38.910;2022-12-24T13:51:45;60.60;;;25.77;;
75687;SDS011;64300;45.034;38.910;2022-12-24T13:54:11;56.53;;;26.10;;
75687;SDS011;64300;45.034;38.910;2022-12-24T13:56:41;57.67;;;25.15;;
75687;SDS011;64300;45.034;38.910;2022-12-24T13:59:09;53.33;;;26.08;;
75687;SDS011;64300;45.034;38.910;2022-12-24T14:01:36;61.63;;;26.55;;
75687;SDS011;64300;45.034;38.910;2022-12-24T14:04:06;66.50;;;26.88;;
75687;SDS011;64300;45.034;38.910;2022-12-24T14:06:39;52.28;;;23.48;;
75687;SDS011;64300;45.034;38.910;2022-12-24T14:09:11;63.70;;;24.13;;
75687;SDS011;64300;45.034;38.910;2022-12-24T14:14:33;58.90;;;24.52;;
75687;SDS011;64300;45.034;38.910;2022-12-24T14:17:01;59.28;;;25.95;;
75687;SDS011;64300;45.034;38.910;2022-12-24T14:25:35;55.40;;;23.73;;
75687;SDS011;64300;45.034;38.910;2022-12-24T14:27:53;64.68;;;25.33;;
75687;SDS011;64300;45.034;38.910;2022-12-24T14:30:28;59.50;;;25.20;;
75687;SDS011;64300;45.034;38.910;2022-12-24T14:32:57;62.67;;;28.17;;
75687;SDS011;64300;45.034;38.910;2022-12-24T14:35:29;54.72;;;25.52;;
75687;SDS011;64300;45.034;38.910;2022-12-24T14:38:14;55.38;;;24.80;;
75687;SDS011;64300;45.034;38.910;2022-12-24T14:40:59;52.40;;;23.42;;
75687;SDS011;64300;45.034;38.910;2022-12-24T14:46:40;46.55;;;20.67;;
75687;SDS011;64300;45.034;38.910;2022-12-24T15:07:42;38.67;;;18.70;;
75687;SDS011;64300;45.034;38.910;2022-12-24T15:10:26;46.25;;;18.48;;
75687;SDS011;64300;45.034;38.910;2022-12-24T15:12:56;48.80;;;18.67;;
75687;SDS011;64300;45.034;38.910;2022-12-24T15:15:26;47.83;;;18.13;;
75687;SDS011;64300;45.034;38.910;2022-12-24T15:20:22;45.72;;;19.27;;
75687;SDS011;64300;45.034;38.910;2022-12-24T15:22:51;50.13;;;19.55;;
75687;SDS011;64300;45.034;38.910;2022-12-24T15:25:23;52.95;;;19.67;;
75687;SDS011;64300;45.034;38.910;2022-12-24T15:27:51;50.35;;;20.42;;
75687;SDS011;64300;45.034;38.910;2022-12-24T15:30:26;41.88;;;20.65;;
75687;SDS011;64300;45.034;38.910;2022-12-24T15:32:54;46.83;;;19.48;;
75687;SDS011;64300;45.034;38.910;2022-12-24T15:38:37;50.45;;;20.60;;
75687;SDS011;64300;45.034;38.910;2022-12-24T15:41:17;42.40;;;18.95;;
75687;SDS011;64300;45.034;38.910;2022-12-24T15:43:47;45.10;;;19.75;;
75687;SDS011;64300;45.034;38.910;2022-12-24T15:46:22;45.53;;;20.77;;
75687;SDS011;64300;45.034;38.910;2022-12-24T15:48:50;49.25;;;19.35;;
75687;SDS011;64300;45.034;38.910;2022-12-24T15:51:22;42.13;;;18.63;;
75687;SDS011;64300;45.034;38.910;2022-12-24T15:53:56;49.70;;;20.42;;
75687;SDS011;64300;45.034;38.910;2022-12-24T15:56:33;47.60;;;20.05;;
75687;SDS011;64300;45.034;38.910;2022-12-24T16:01:45;50.25;;;21.83;;
75687;SDS011;64300;45.034;38.910;2022-12-24T16:04:13;50.50;;;19.83;;
75687;SDS011;64300;45.034;38.910;2022-12-24T16:06:50;52.08;;;23.30;;
75687;SDS011;64300;45.034;38.910;2022-12-24T16:12:02;54.35;;;22.17;;
75687;SDS011;64300;45.034;38.910;2022-12-24T16:14:28;51.60;;;21.83;;
75687;SDS011;64300;45.034;38.910;2022-12-24T16:16:56;50.17;;;22.00;;
75687;SDS011;64300;45.034;38.910;2022-12-24T16:19:32;46.70;;;23.35;;
75687;SDS011;64300;45.034;38.910;2022-12-24T16:21:59;54.88;;;23.35;;
75687;SDS011;64300;45.034;38.910;2022-12-24T16:24:49;51.67;;;22.95;;
75687;SDS011;64300;45.034;38.910;2022-12-24T16:27:19;49.28;;;23.40;;
75687;SDS011;64300;45.034;38.910;2022-12-24T16:29:46;55.17;;;22.60;;
75687;SDS011;64300;45.034;38.910;2022-12-24T16:34:58;47.13;;;21.83;;
75687;SDS011;64300;45.034;38.910;2022-12-24T16:37:25;48.88;;;20.48;;
75687;SDS011;64300;45.034;38.910;2022-12-24T16:39:51;36.08;;;17.20;;
75687;SDS011;64300;45.034;38.910;2022-12-24T16:42:20;49.33;;;21.45;;
75687;SDS011;64300;45.034;38.910;2022-12-24T16:45:04;45.75;;;20.65;;
75687;SDS011;64300;45.034;38.910;2022-12-24T16:47:31;45.65;;;20.23;;
75687;SDS011;64300;45.034;38.910;2022-12-24T16:50:03;45.70;;;18.20;;
75687;SDS011;64300;45.034;38.910;2022-12-24T16:52:31;43.78;;;19.88;;
75687;SDS011;64300;45.034;38.910;2022-12-24T16:54:58;50.58;;;19.90;;
75687;SDS011;64300;45.034;38.910;2022-12-24T16:57:25;45.72;;;20.75;;
75687;SDS011;64300;45.034;38.910;2022-12-24T16:59:52;50.97;;;20.45;;
75687;SDS011;64300;45.034;38.910;2022-12-24T17:02:19;44.85;;;22.33;;
75687;SDS011;64300;45.034;38.910;2022-12-24T17:04:46;52.50;;;25.63;;
75687;SDS011;64300;45.034;38.910;2022-12-24T17:07:14;54.70;;;23.80;;
75687;SDS011;64300;45.034;38.910;2022-12-24T17:09:47;47.58;;;21.40;;
75687;SDS011;64300;45.034;38.910;2022-12-24T17:12:13;53.78;;;23.45;;
75687;SDS011;64300;45.034;38.910;2022-12-24T17:14:41;56.00;;;22.70;;
75687;SDS011;64300;45.034;38.910;2022-12-24T17:17:09;56.22;;;23.77;;
75687;SDS011;64300;45.034;38.910;2022-12-24T17:19:48;56.35;;;24.25;;